Airfield :
LOGIN :

Register | Disclaimer

   EN    FR    IT 

 










Legend :    VFR   Marginal VFR   IFR   Intensive IFR   Very Intensive IFR
Visi :
Ceiling :
>= 8 km
>= 3000ft
5 to 8 km
1000 to 3000 ft
1500m to 5 km
500 to 1000 ft
800 to 1500m
200 to 500 ft
< 800m
< 200 ft
Symbols :   Thunderstorms  Fog  Heavy snow  Heavy precipitations  Wind > 20 kt
SIGMETs :     Misc.  Thunderstorms  Icing  Turbulence  Mountain Waves  Volcanic Ashes






- Airport Elevation : 1213 ft
- IATA code : SCQ


LEST - Santiago de Compostela

CURRENT METAR :
  • 220430Z 01007KT 6000 -RA SCT003 BKN006 BKN035 13/12 Q1019 TEMPO RA

EXPIRED METARs :
  • 220400Z 36006KT 6000 -RA SCT003 BKN005 BKN035 13/12 Q1018 TEMPO RA
  • 220330Z 36004KT 330V030 9999 FEW003 BKN005 BKN025 13/12 Q1018 TEMPO RA
  • 220300Z 36005KT 320V040 5000 -RA FEW003 BKN006 BKN045 13/12 Q1018 TEMPO RA
  • 220230Z 35004KT 310V020 3000 -RA SCT003 BKN006 13/12 Q1018 TEMPO RA
  • 220200Z VRB02KT 3000 -RA SCT003 BKN006 13/12 Q1018 TEMPO RA

TAF TAF LEST
Valid from the 22 at 00:00 until the 23 at 00:00 UTC


212300Z 2200/2224 33009KT 9999 SCT010 BKN020 TX18/2215Z TN10/2206Z
TEMPO 2200/2207 3000 RA BR BKN005 BKN010
PROB30
TEMPO 2200/2207 0800 BCFG BKN002 BKN005



MET'MAP, your aeronautical weather chart ! - Copyright ORBIFLY December 2007 - Disclaimer

ORBIFLY MET'MAP TEAM :

Programming & Development : Alexandra Zaïnal
Concept & original design : Baudouin d'Aumeries
Assistance for programming : Marc-Olivier Méhu
Technical & hardware support : Manuel Goepfert

Contact : metmap@orbifly.com




SOURCES & CREDITS :

   NOAA